sensor_id;sensor_type;location;lat;lon;timestamp;temperature;humidity
20795;DHT22;28087;-33.874;151.240;2023-04-06T00:01:49;21.30;79.30
20795;DHT22;28087;-33.874;151.240;2023-04-06T00:04:23;21.20;79.00
20795;DHT22;28087;-33.874;151.240;2023-04-06T00:06:59;21.20;79.10
20795;DHT22;28087;-33.874;151.240;2023-04-06T00:09:33;21.30;79.20
20795;DHT22;28087;-33.874;151.240;2023-04-06T00:12:07;21.20;79.20
20795;DHT22;28087;-33.874;151.240;2023-04-06T00:14:41;21.30;79.40
20795;DHT22;28087;-33.874;151.240;2023-04-06T00:17:18;21.30;79.40
20795;DHT22;28087;-33.874;151.240;2023-04-06T00:19:52;21.30;79.40
20795;DHT22;28087;-33.874;151.240;2023-04-06T00:22:26;21.40;79.80
20795;DHT22;28087;-33.874;151.240;2023-04-06T00:25:01;21.50;79.70
20795;DHT22;28087;-33.874;151.240;2023-04-06T00:27:35;21.60;79.90
20795;DHT22;28087;-33.874;151.240;2023-04-06T00:30:09;21.60;79.80
20795;DHT22;28087;-33.874;151.240;2023-04-06T00:32:45;21.60;79.30
20795;DHT22;28087;-33.874;151.240;2023-04-06T00:35:20;21.70;79.00
20795;DHT22;28087;-33.874;151.240;2023-04-06T00:37:55;21.80;78.30
20795;DHT22;28087;-33.874;151.240;2023-04-06T00:40:29;21.80;78.00
20795;DHT22;28087;-33.874;151.240;2023-04-06T00:43:03;22.00;77.80
20795;DHT22;28087;-33.874;151.240;2023-04-06T00:45:38;22.00;77.60
20795;DHT22;28087;-33.874;151.240;2023-04-06T00:48:15;22.20;77.40
20795;DHT22;28087;-33.874;151.240;2023-04-06T00:50:50;22.20;77.30
20795;DHT22;28087;-33.874;151.240;2023-04-06T00:53:24;22.20;76.40
20795;DHT22;28087;-33.874;151.240;2023-04-06T00:56:01;22.30;76.30
20795;DHT22;28087;-33.874;151.240;2023-04-06T00:58:47;22.50;76.60
20795;DHT22;28087;-33.874;151.240;2023-04-06T01:01:21;22.60;76.30
20795;DHT22;28087;-33.874;151.240;2023-04-06T01:04:01;22.70;75.90
20795;DHT22;28087;-33.874;151.240;2023-04-06T01:06:42;22.80;75.60
20795;DHT22;28087;-33.874;151.240;2023-04-06T01:09:17;22.80;74.90
20795;DHT22;28087;-33.874;151.240;2023-04-06T01:11:52;22.80;74.10
20795;DHT22;28087;-33.874;151.240;2023-04-06T01:14:31;22.90;73.50
20795;DHT22;28087;-33.874;151.240;2023-04-06T01:17:05;22.90;74.00
20795;DHT22;28087;-33.874;151.240;2023-04-06T01:19:44;22.90;73.50
20795;DHT22;28087;-33.874;151.240;2023-04-06T01:22:29;23.00;73.90
20795;DHT22;28087;-33.874;151.240;2023-04-06T01:25:04;23.10;73.90
20795;DHT22;28087;-33.874;151.240;2023-04-06T01:27:49;23.10;72.90
20795;DHT22;28087;-33.874;151.240;2023-04-06T01:30:27;23.10;73.50
20795;DHT22;28087;-33.874;151.240;2023-04-06T01:33:09;23.20;73.60
20795;DHT22;28087;-33.874;151.240;2023-04-06T01:36:00;23.20;73.00
20795;DHT22;28087;-33.874;151.240;2023-04-06T01:38:37;23.20;72.00
20795;DHT22;28087;-33.874;151.240;2023-04-06T01:41:14;23.20;72.20
20795;DHT22;28087;-33.874;151.240;2023-04-06T01:43:52;23.30;72.70
20795;DHT22;28087;-33.874;151.240;2023-04-06T01:46:32;23.30;73.10
20795;DHT22;28087;-33.874;151.240;2023-04-06T01:49:09;23.30;72.80
20795;DHT22;28087;-33.874;151.240;2023-04-06T01:51:49;23.30;73.20
20795;DHT22;28087;-33.874;151.240;2023-04-06T01:54:25;23.10;72.10
20795;DHT22;28087;-33.874;151.240;2023-04-06T01:57:15;23.00;72.30
20795;DHT22;28087;-33.874;151.240;2023-04-06T02:00:09;23.00;72.60
20795;DHT22;28087;-33.874;151.240;2023-04-06T02:02:51;23.00;72.60
20795;DHT22;28087;-33.874;151.240;2023-04-06T02:05:28;23.10;72.70
20795;DHT22;28087;-33.874;151.240;2023-04-06T02:08:05;23.10;72.80
20795;DHT22;28087;-33.874;151.240;2023-04-06T02:10:42;23.20;72.40
20795;DHT22;28087;-33.874;151.240;2023-04-06T02:13:29;23.40;72.30
20795;DHT22;28087;-33.874;151.240;2023-04-06T02:16:04;23.60;71.50
20795;DHT22;28087;-33.874;151.240;2023-04-06T02:18:39;23.60;70.40
20795;DHT22;28087;-33.874;151.240;2023-04-06T02:21:16;23.70;70.10
20795;DHT22;28087;-33.874;151.240;2023-04-06T02:23:51;23.70;70.20
20795;DHT22;28087;-33.874;151.240;2023-04-06T02:26:27;23.80;68.00
20795;DHT22;28087;-33.874;151.240;2023-04-06T02:29:01;24.00;69.20
20795;DHT22;28087;-33.874;151.240;2023-04-06T02:31:36;24.10;69.10
20795;DHT22;28087;-33.874;151.240;2023-04-06T02:34:11;24.20;68.80
20795;DHT22;28087;-33.874;151.240;2023-04-06T02:36:51;24.20;67.60
20795;DHT22;28087;-33.874;151.240;2023-04-06T02:39:26;24.20;68.20
20795;DHT22;28087;-33.874;151.240;2023-04-06T02:42:03;24.30;67.30
20795;DHT22;28087;-33.874;151.240;2023-04-06T02:44:38;24.40;66.30
20795;DHT22;28087;-33.874;151.240;2023-04-06T02:47:12;24.60;65.30
20795;DHT22;28087;-33.874;151.240;2023-04-06T02:49:50;24.60;66.30
20795;DHT22;28087;-33.874;151.240;2023-04-06T02:52:24;24.60;66.20
20795;DHT22;28087;-33.874;151.240;2023-04-06T02:55:00;24.70;65.00
20795;DHT22;28087;-33.874;151.240;2023-04-06T02:57:36;24.80;64.80
20795;DHT22;28087;-33.874;151.240;2023-04-06T03:00:10;25.00;64.20
20795;DHT22;28087;-33.874;151.240;2023-04-06T03:02:45;24.90;64.30
20795;DHT22;28087;-33.874;151.240;2023-04-06T03:05:21;24.70;63.80
20795;DHT22;28087;-33.874;151.240;2023-04-06T03:07:55;24.70;62.90
20795;DHT22;28087;-33.874;151.240;2023-04-06T03:10:41;24.70;64.30
20795;DHT22;28087;-33.874;151.240;2023-04-06T03:13:20;24.60;63.70
20795;DHT22;28087;-33.874;151.240;2023-04-06T03:15:57;24.50;63.00
20795;DHT22;28087;-33.874;151.240;2023-04-06T03:18:31;24.40;64.00
20795;DHT22;28087;-33.874;151.240;2023-04-06T03:21:06;24.40;64.20
20795;DHT22;28087;-33.874;151.240;2023-04-06T03:24:06;24.40;64.20
20795;DHT22;28087;-33.874;151.240;2023-04-06T03:26:41;24.30;64.30
20795;DHT22;28087;-33.874;151.240;2023-04-06T03:29:18;24.30;63.70
20795;DHT22;28087;-33.874;151.240;2023-04-06T03:31:52;24.40;64.40
20795;DHT22;28087;-33.874;151.240;2023-04-06T03:34:38;24.50;64.30
20795;DHT22;28087;-33.874;151.240;2023-04-06T03:37:14;24.50;63.70
20795;DHT22;28087;-33.874;151.240;2023-04-06T03:39:53;24.50;63.40
20795;DHT22;28087;-33.874;151.240;2023-04-06T03:42:27;24.50;63.60
20795;DHT22;28087;-33.874;151.240;2023-04-06T03:45:10;24.40;63.60
20795;DHT22;28087;-33.874;151.240;2023-04-06T03:47:49;24.60;64.70
20795;DHT22;28087;-33.874;151.240;2023-04-06T03:50:23;24.60;62.70
20795;DHT22;28087;-33.874;151.240;2023-04-06T03:52:58;24.60;63.40
20795;DHT22;28087;-33.874;151.240;2023-04-06T03:55:35;24.60;63.60
20795;DHT22;28087;-33.874;151.240;2023-04-06T03:58:10;24.60;63.20
20795;DHT22;28087;-33.874;151.240;2023-04-06T04:00:46;24.60;63.10
20795;DHT22;28087;-33.874;151.240;2023-04-06T04:03:20;24.60;63.00
20795;DHT22;28087;-33.874;151.240;2023-04-06T04:05:55;24.60;62.20
20795;DHT22;28087;-33.874;151.240;2023-04-06T04:08:30;24.50;62.70
20795;DHT22;28087;-33.874;151.240;2023-04-06T04:11:07;24.60;62.80
20795;DHT22;28087;-33.874;151.240;2023-04-06T04:13:42;24.40;62.60
20795;DHT22;28087;-33.874;151.240;2023-04-06T04:16:19;24.50;63.30
20795;DHT22;28087;-33.874;151.240;2023-04-06T04:18:53;24.40;63.20
20795;DHT22;28087;-33.874;151.240;2023-04-06T04:21:30;24.40;63.20
20795;DHT22;28087;-33.874;151.240;2023-04-06T04:24:09;24.40;63.40
20795;DHT22;28087;-33.874;151.240;2023-04-06T04:26:43;24.40;63.20
20795;DHT22;28087;-33.874;151.240;2023-04-06T04:29:18;24.40;63.40
20795;DHT22;28087;-33.874;151.240;2023-04-06T04:31:56;24.30;63.20
20795;DHT22;28087;-33.874;151.240;2023-04-06T04:34:31;24.30;63.60
20795;DHT22;28087;-33.874;151.240;2023-04-06T04:37:07;24.20;63.50
20795;DHT22;28087;-33.874;151.240;2023-04-06T04:39:50;24.10;63.50
20795;DHT22;28087;-33.874;151.240;2023-04-06T04:42:24;24.10;63.50
20795;DHT22;28087;-33.874;151.240;2023-04-06T04:45:01;24.10;63.50
20795;DHT22;28087;-33.874;151.240;2023-04-06T04:47:41;24.30;63.10
20795;DHT22;28087;-33.874;151.240;2023-04-06T04:50:17;24.30;63.30
20795;DHT22;28087;-33.874;151.240;2023-04-06T04:52:56;24.40;63.20
20795;DHT22;28087;-33.874;151.240;2023-04-06T04:55:30;24.30;63.10
20795;DHT22;28087;-33.874;151.240;2023-04-06T04:58:05;24.30;63.00
20795;DHT22;28087;-33.874;151.240;2023-04-06T05:00:51;24.30;63.20
20795;DHT22;28087;-33.874;151.240;2023-04-06T05:03:27;24.40;63.10
20795;DHT22;28087;-33.874;151.240;2023-04-06T05:06:07;24.30;63.00
20795;DHT22;28087;-33.874;151.240;2023-04-06T05:08:43;24.20;63.30
20795;DHT22;28087;-33.874;151.240;2023-04-06T05:11:18;24.20;63.60
20795;DHT22;28087;-33.874;151.240;2023-04-06T05:13:59;24.10;62.70
20795;DHT22;28087;-33.874;151.240;2023-04-06T05:16:34;24.10;62.80
20795;DHT22;28087;-33.874;151.240;2023-04-06T05:19:10;24.10;63.00
20795;DHT22;28087;-33.874;151.240;2023-04-06T05:21:46;23.90;62.90
20795;DHT22;28087;-33.874;151.240;2023-04-06T05:24:20;23.90;63.30
20795;DHT22;28087;-33.874;151.240;2023-04-06T05:26:56;24.00;63.50
20795;DHT22;28087;-33.874;151.240;2023-04-06T05:29:31;24.00;63.90
20795;DHT22;28087;-33.874;151.240;2023-04-06T05:32:06;23.90;64.20
20795;DHT22;28087;-33.874;151.240;2023-04-06T05:34:43;23.90;63.50
20795;DHT22;28087;-33.874;151.240;2023-04-06T05:37:17;23.80;64.00
20795;DHT22;28087;-33.874;151.240;2023-04-06T05:39:54;23.80;64.00
20795;DHT22;28087;-33.874;151.240;2023-04-06T05:42:36;23.80;64.20
20795;DHT22;28087;-33.874;151.240;2023-04-06T05:45:12;23.80;64.00
20795;DHT22;28087;-33.874;151.240;2023-04-06T05:47:53;23.70;64.10
20795;DHT22;28087;-33.874;151.240;2023-04-06T05:50:32;23.80;64.10
20795;DHT22;28087;-33.874;151.240;2023-04-06T05:53:07;23.70;64.60
20795;DHT22;28087;-33.874;151.240;2023-04-06T05:55:46;23.70;64.70
20795;DHT22;28087;-33.874;151.240;2023-04-06T05:58:22;23.70;65.20
20795;DHT22;28087;-33.874;151.240;2023-04-06T06:00:57;23.60;65.10
20795;DHT22;28087;-33.874;151.240;2023-04-06T06:03:39;23.50;65.70
20795;DHT22;28087;-33.874;151.240;2023-04-06T06:06:17;23.60;65.90
20795;DHT22;28087;-33.874;151.240;2023-04-06T06:09:11;23.60;66.30
20795;DHT22;28087;-33.874;151.240;2023-04-06T06:12:03;23.60;66.80
20795;DHT22;28087;-33.874;151.240;2023-04-06T06:14:40;23.70;67.30
20795;DHT22;28087;-33.874;151.240;2023-04-06T06:17:14;23.50;67.50
20795;DHT22;28087;-33.874;151.240;2023-04-06T06:19:50;23.60;67.50
20795;DHT22;28087;-33.874;151.240;2023-04-06T06:22:26;23.50;67.60
20795;DHT22;28087;-33.874;151.240;2023-04-06T06:25:00;23.60;67.70
20795;DHT22;28087;-33.874;151.240;2023-04-06T06:27:35;23.60;67.90
20795;DHT22;28087;-33.874;151.240;2023-04-06T06:30:10;23.50;68.30
20795;DHT22;28087;-33.874;151.240;2023-04-06T06:32:45;23.50;68.00
20795;DHT22;28087;-33.874;151.240;2023-04-06T06:35:21;23.60;68.40
20795;DHT22;28087;-33.874;151.240;2023-04-06T06:37:57;23.50;68.50
20795;DHT22;28087;-33.874;151.240;2023-04-06T06:40:33;23.40;68.50
20795;DHT22;28087;-33.874;151.240;2023-04-06T06:43:07;23.50;68.50
20795;DHT22;28087;-33.874;151.240;2023-04-06T06:46:00;23.40;68.60
20795;DHT22;28087;-33.874;151.240;2023-04-06T06:48:35;23.40;69.20
20795;DHT22;28087;-33.874;151.240;2023-04-06T06:51:09;23.30;69.20
20795;DHT22;28087;-33.874;151.240;2023-04-06T06:54:00;23.30;69.80
20795;DHT22;28087;-33.874;151.240;2023-04-06T06:56:36;23.20;69.90
20795;DHT22;28087;-33.874;151.240;2023-04-06T06:59:11;23.30;70.30
20795;DHT22;28087;-33.874;151.240;2023-04-06T07:01:47;23.30;70.10
20795;DHT22;28087;-33.874;151.240;2023-04-06T07:04:21;23.20;70.20
20795;DHT22;28087;-33.874;151.240;2023-04-06T07:06:56;23.20;70.80
20795;DHT22;28087;-33.874;151.240;2023-04-06T07:09:33;23.20;70.60
20795;DHT22;28087;-33.874;151.240;2023-04-06T07:12:07;23.30;70.50
20795;DHT22;28087;-33.874;151.240;2023-04-06T07:14:41;23.10;70.60
20795;DHT22;28087;-33.874;151.240;2023-04-06T07:17:16;23.20;70.70
20795;DHT22;28087;-33.874;151.240;2023-04-06T07:19:51;23.00;70.60
20795;DHT22;28087;-33.874;151.240;2023-04-06T07:22:26;23.10;70.90
20795;DHT22;28087;-33.874;151.240;2023-04-06T07:25:01;23.00;71.20
20795;DHT22;28087;-33.874;151.240;2023-04-06T07:27:36;22.90;71.70
20795;DHT22;28087;-33.874;151.240;2023-04-06T07:30:11;23.00;71.60
20795;DHT22;28087;-33.874;151.240;2023-04-06T07:32:45;23.10;71.60
20795;DHT22;28087;-33.874;151.240;2023-04-06T07:35:20;22.90;72.20
20795;DHT22;28087;-33.874;151.240;2023-04-06T07:37:56;22.90;72.30
20795;DHT22;28087;-33.874;151.240;2023-04-06T07:40:34;22.90;72.20
20795;DHT22;28087;-33.874;151.240;2023-04-06T07:43:08;23.10;72.20
20795;DHT22;28087;-33.874;151.240;2023-04-06T07:45:42;22.90;72.00
20795;DHT22;28087;-33.874;151.240;2023-04-06T07:48:18;22.90;72.00
20795;DHT22;28087;-33.874;151.240;2023-04-06T07:50:54;22.80;72.30
20795;DHT22;28087;-33.874;151.240;2023-04-06T07:53:38;22.70;72.40
20795;DHT22;28087;-33.874;151.240;2023-04-06T07:56:14;22.90;72.40
20795;DHT22;28087;-33.874;151.240;2023-04-06T07:58:48;22.80;72.50
20795;DHT22;28087;-33.874;151.240;2023-04-06T08:01:23;22.90;72.50
20795;DHT22;28087;-33.874;151.240;2023-04-06T08:03:58;22.80;72.30
20795;DHT22;28087;-33.874;151.240;2023-04-06T08:06:33;22.80;72.30
20795;DHT22;28087;-33.874;151.240;2023-04-06T08:09:08;22.80;72.10
20795;DHT22;28087;-33.874;151.240;2023-04-06T08:11:45;22.80;72.10
20795;DHT22;28087;-33.874;151.240;2023-04-06T08:14:19;22.70;72.00
20795;DHT22;28087;-33.874;151.240;2023-04-06T08:16:53;22.70;71.90
20795;DHT22;28087;-33.874;151.240;2023-04-06T08:19:27;22.70;71.90
20795;DHT22;28087;-33.874;151.240;2023-04-06T08:22:02;22.60;72.40
20795;DHT22;28087;-33.874;151.240;2023-04-06T08:24:36;22.60;72.40
20795;DHT22;28087;-33.874;151.240;2023-04-06T08:27:13;22.60;72.50
20795;DHT22;28087;-33.874;151.240;2023-04-06T08:29:49;22.50;72.40
20795;DHT22;28087;-33.874;151.240;2023-04-06T08:32:25;22.60;72.40
20795;DHT22;28087;-33.874;151.240;2023-04-06T08:34:59;22.50;71.80
20795;DHT22;28087;-33.874;151.240;2023-04-06T08:37:33;22.50;72.70
20795;DHT22;28087;-33.874;151.240;2023-04-06T08:40:09;22.40;73.30
20795;DHT22;28087;-33.874;151.240;2023-04-06T08:42:48;22.40;73.50
20795;DHT22;28087;-33.874;151.240;2023-04-06T08:45:23;22.20;73.70
20795;DHT22;28087;-33.874;151.240;2023-04-06T08:47:57;22.30;73.90
20795;DHT22;28087;-33.874;151.240;2023-04-06T08:50:33;22.30;74.30
20795;DHT22;28087;-33.874;151.240;2023-04-06T08:53:08;22.30;74.30
20795;DHT22;28087;-33.874;151.240;2023-04-06T08:55:43;22.30;74.50
20795;DHT22;28087;-33.874;151.240;2023-04-06T08:58:19;22.20;74.60
20795;DHT22;28087;-33.874;151.240;2023-04-06T09:01:06;22.20;74.80
20795;DHT22;28087;-33.874;151.240;2023-04-06T09:03:45;22.20;75.00
20795;DHT22;28087;-33.874;151.240;2023-04-06T09:06:20;22.00;75.10
20795;DHT22;28087;-33.874;151.240;2023-04-06T09:08:54;22.00;75.10
20795;DHT22;28087;-33.874;151.240;2023-04-06T09:11:40;22.10;75.00
20795;DHT22;28087;-33.874;151.240;2023-04-06T09:14:17;22.10;75.30
20795;DHT22;28087;-33.874;151.240;2023-04-06T09:16:51;22.10;75.00
20795;DHT22;28087;-33.874;151.240;2023-04-06T09:19:25;22.10;75.40
20795;DHT22;28087;-33.874;151.240;2023-04-06T09:22:03;22.10;75.10
20795;DHT22;28087;-33.874;151.240;2023-04-06T09:24:41;22.10;75.00
20795;DHT22;28087;-33.874;151.240;2023-04-06T09:27:15;22.10;75.00
20795;DHT22;28087;-33.874;151.240;2023-04-06T09:29:51;22.10;74.90
20795;DHT22;28087;-33.874;151.240;2023-04-06T09:32:46;22.10;75.00
20795;DHT22;28087;-33.874;151.240;2023-04-06T09:35:21;22.00;75.40
20795;DHT22;28087;-33.874;151.240;2023-04-06T09:37:57;22.00;75.30
20795;DHT22;28087;-33.874;151.240;2023-04-06T09:40:31;22.00;75.50
20795;DHT22;28087;-33.874;151.240;2023-04-06T09:43:23;21.80;75.80
20795;DHT22;28087;-33.874;151.240;2023-04-06T09:45:59;21.80;75.80
20795;DHT22;28087;-33.874;151.240;2023-04-06T09:48:34;21.80;75.90
20795;DHT22;28087;-33.874;151.240;2023-04-06T09:51:11;21.80;76.00
20795;DHT22;28087;-33.874;151.240;2023-04-06T09:53:53;21.70;75.70
20795;DHT22;28087;-33.874;151.240;2023-04-06T09:56:33;21.70;75.90
20795;DHT22;28087;-33.874;151.240;2023-04-06T09:59:11;21.80;75.20
20795;DHT22;28087;-33.874;151.240;2023-04-06T10:01:48;21.80;75.30
20795;DHT22;28087;-33.874;151.240;2023-04-06T10:04:29;21.70;75.30
20795;DHT22;28087;-33.874;151.240;2023-04-06T10:07:05;21.80;75.20
20795;DHT22;28087;-33.874;151.240;2023-04-06T10:09:42;21.80;75.00
20795;DHT22;28087;-33.874;151.240;2023-04-06T10:12:21;21.90;75.10
20795;DHT22;28087;-33.874;151.240;2023-04-06T10:14:58;21.90;75.40
20795;DHT22;28087;-33.874;151.240;2023-04-06T10:17:34;21.80;75.70
20795;DHT22;28087;-33.874;151.240;2023-04-06T10:20:22;21.80;75.90
20795;DHT22;28087;-33.874;151.240;2023-04-06T10:22:59;21.80;76.10
20795;DHT22;28087;-33.874;151.240;2023-04-06T10:25:35;21.70;75.90
20795;DHT22;28087;-33.874;151.240;2023-04-06T10:28:09;21.60;75.90
20795;DHT22;28087;-33.874;151.240;2023-04-06T10:30:45;21.70;76.00
20795;DHT22;28087;-33.874;151.240;2023-04-06T10:33:21;21.60;76.10
20795;DHT22;28087;-33.874;151.240;2023-04-06T10:35:56;21.60;75.80
20795;DHT22;28087;-33.874;151.240;2023-04-06T10:38:34;21.60;75.70
20795;DHT22;28087;-33.874;151.240;2023-04-06T10:41:10;21.50;76.00
20795;DHT22;28087;-33.874;151.240;2023-04-06T10:43:45;21.60;75.80
20795;DHT22;28087;-33.874;151.240;2023-04-06T10:46:24;21.60;75.50
20795;DHT22;28087;-33.874;151.240;2023-04-06T10:49:08;21.60;75.40
20795;DHT22;28087;-33.874;151.240;2023-04-06T10:51:43;21.60;75.20
20795;DHT22;28087;-33.874;151.240;2023-04-06T10:54:17;21.80;75.30
20795;DHT22;28087;-33.874;151.240;2023-04-06T10:56:53;21.70;75.20
20795;DHT22;28087;-33.874;151.240;2023-04-06T10:59:28;21.70;75.30
20795;DHT22;28087;-33.874;151.240;2023-04-06T11:02:03;21.60;75.60
20795;DHT22;28087;-33.874;151.240;2023-04-06T11:04:43;21.60;75.90
20795;DHT22;28087;-33.874;151.240;2023-04-06T11:07:28;21.50;76.00
20795;DHT22;28087;-33.874;151.240;2023-04-06T11:10:02;21.40;75.90
20795;DHT22;28087;-33.874;151.240;2023-04-06T11:12:39;21.50;76.00
20795;DHT22;28087;-33.874;151.240;2023-04-06T11:15:13;21.40;76.00
20795;DHT22;28087;-33.874;151.240;2023-04-06T11:17:49;21.40;76.20
20795;DHT22;28087;-33.874;151.240;2023-04-06T11:20:25;21.50;76.10
20795;DHT22;28087;-33.874;151.240;2023-04-06T11:22:59;21.40;76.00
20795;DHT22;28087;-33.874;151.240;2023-04-06T11:25:34;21.50;76.00
20795;DHT22;28087;-33.874;151.240;2023-04-06T11:28:11;21.40;76.00
20795;DHT22;28087;-33.874;151.240;2023-04-06T11:30:45;21.40;76.30
20795;DHT22;28087;-33.874;151.240;2023-04-06T11:33:21;21.40;76.30
20795;DHT22;28087;-33.874;151.240;2023-04-06T11:35:59;21.40;76.10
20795;DHT22;28087;-33.874;151.240;2023-04-06T11:38:34;21.30;76.30
20795;DHT22;28087;-33.874;151.240;2023-04-06T11:41:12;21.30;76.20
20795;DHT22;28087;-33.874;151.240;2023-04-06T11:43:46;21.20;76.50
20795;DHT22;28087;-33.874;151.240;2023-04-06T11:46:21;21.20;76.50
20795;DHT22;28087;-33.874;151.240;2023-04-06T11:48:58;21.20;76.60
20795;DHT22;28087;-33.874;151.240;2023-04-06T11:51:37;21.20;76.50
20795;DHT22;28087;-33.874;151.240;2023-04-06T11:54:11;21.20;76.60
20795;DHT22;28087;-33.874;151.240;2023-04-06T11:56:48;21.10;76.70
20795;DHT22;28087;-33.874;151.240;2023-04-06T11:59:24;21.20;76.70
20795;DHT22;28087;-33.874;151.240;2023-04-06T12:01:59;21.20;76.90
20795;DHT22;28087;-33.874;151.240;2023-04-06T12:04:35;21.20;76.70
20795;DHT22;28087;-33.874;151.240;2023-04-06T12:07:14;21.30;76.70
20795;DHT22;28087;-33.874;151.240;2023-04-06T12:09:49;21.20;76.80
20795;DHT22;28087;-33.874;151.240;2023-04-06T12:12:23;21.20;76.70
20795;DHT22;28087;-33.874;151.240;2023-04-06T12:14:57;21.20;76.70
20795;DHT22;28087;-33.874;151.240;2023-04-06T12:17:32;21.10;76.70
20795;DHT22;28087;-33.874;151.240;2023-04-06T12:20:09;21.00;77.20
20795;DHT22;28087;-33.874;151.240;2023-04-06T12:22:56;21.00;77.20
20795;DHT22;28087;-33.874;151.240;2023-04-06T12:25:31;21.10;77.20
20795;DHT22;28087;-33.874;151.240;2023-04-06T12:28:07;21.10;77.00
20795;DHT22;28087;-33.874;151.240;2023-04-06T12:30:42;21.20;76.90
20795;DHT22;28087;-33.874;151.240;2023-04-06T12:33:16;21.20;76.80
20795;DHT22;28087;-33.874;151.240;2023-04-06T12:35:50;21.20;76.70
20795;DHT22;28087;-33.874;151.240;2023-04-06T12:38:27;21.10;76.90
20795;DHT22;28087;-33.874;151.240;2023-04-06T12:41:02;21.10;77.00
20795;DHT22;28087;-33.874;151.240;2023-04-06T12:43:36;21.10;76.90
20795;DHT22;28087;-33.874;151.240;2023-04-06T12:46:12;21.10;76.90
20795;DHT22;28087;-33.874;151.240;2023-04-06T12:48:46;21.20;76.80
20795;DHT22;28087;-33.874;151.240;2023-04-06T12:51:21;21.10;76.80
20795;DHT22;28087;-33.874;151.240;2023-04-06T12:53:58;21.10;76.80
20795;DHT22;28087;-33.874;151.240;2023-04-06T12:56:32;21.20;76.70
20795;DHT22;28087;-33.874;151.240;2023-04-06T12:59:06;21.10;77.00
20795;DHT22;28087;-33.874;151.240;2023-04-06T13:01:42;21.00;76.90
20795;DHT22;28087;-33.874;151.240;2023-04-06T13:04:16;21.00;77.00
20795;DHT22;28087;-33.874;151.240;2023-04-06T13:06:51;21.00;77.20
20795;DHT22;28087;-33.874;151.240;2023-04-06T13:09:27;21.00;77.30
20795;DHT22;28087;-33.874;151.240;2023-04-06T13:12:01;20.90;77.40
20795;DHT22;28087;-33.874;151.240;2023-04-06T13:14:36;20.90;77.30
20795;DHT22;28087;-33.874;151.240;2023-04-06T13:17:10;20.80;77.60
20795;DHT22;28087;-33.874;151.240;2023-04-06T13:19:45;20.70;77.70
20795;DHT22;28087;-33.874;151.240;2023-04-06T13:22:21;20.60;77.80
20795;DHT22;28087;-33.874;151.240;2023-04-06T13:24:57;20.70;77.80
20795;DHT22;28087;-33.874;151.240;2023-04-06T13:27:31;20.70;77.90
20795;DHT22;28087;-33.874;151.240;2023-04-06T13:30:07;20.80;77.70
20795;DHT22;28087;-33.874;151.240;2023-04-06T13:32:45;20.80;77.70
20795;DHT22;28087;-33.874;151.240;2023-04-06T13:35:19;20.70;77.60
20795;DHT22;28087;-33.874;151.240;2023-04-06T13:37:54;20.80;77.50
20795;DHT22;28087;-33.874;151.240;2023-04-06T13:40:30;20.80;77.40
20795;DHT22;28087;-33.874;151.240;2023-04-06T13:43:05;20.90;77.50
20795;DHT22;28087;-33.874;151.240;2023-04-06T13:45:39;20.80;77.70
20795;DHT22;28087;-33.874;151.240;2023-04-06T13:48:13;20.80;77.70
20795;DHT22;28087;-33.874;151.240;2023-04-06T13:50:47;20.80;77.60
20795;DHT22;28087;-33.874;151.240;2023-04-06T13:53:23;20.70;77.50
20795;DHT22;28087;-33.874;151.240;2023-04-06T13:55:59;20.90;77.60
20795;DHT22;28087;-33.874;151.240;2023-04-06T13:58:33;20.80;77.60
20795;DHT22;28087;-33.874;151.240;2023-04-06T14:01:11;20.80;77.50
20795;DHT22;28087;-33.874;151.240;2023-04-06T14:03:48;20.60;77.70
20795;DHT22;28087;-33.874;151.240;2023-04-06T14:06:22;20.70;77.80
20795;DHT22;28087;-33.874;151.240;2023-04-06T14:09:00;20.50;77.80
20795;DHT22;28087;-33.874;151.240;2023-04-06T14:11:36;20.60;77.80
20795;DHT22;28087;-33.874;151.240;2023-04-06T14:14:11;20.60;77.40
20795;DHT22;28087;-33.874;151.240;2023-04-06T14:16:45;20.50;77.60
20795;DHT22;28087;-33.874;151.240;2023-04-06T14:19:20;20.60;77.40
20795;DHT22;28087;-33.874;151.240;2023-04-06T14:21:54;20.60;77.30
20795;DHT22;28087;-33.874;151.240;2023-04-06T14:24:30;20.70;77.20
20795;DHT22;28087;-33.874;151.240;2023-04-06T14:27:06;20.70;77.10
20795;DHT22;28087;-33.874;151.240;2023-04-06T14:29:40;20.80;76.90
20795;DHT22;28087;-33.874;151.240;2023-04-06T14:32:17;20.70;77.20
20795;DHT22;28087;-33.874;151.240;2023-04-06T14:34:54;20.70;77.00
20795;DHT22;28087;-33.874;151.240;2023-04-06T14:37:28;20.70;77.10
20795;DHT22;28087;-33.874;151.240;2023-04-06T14:40:02;20.70;77.20
20795;DHT22;28087;-33.874;151.240;2023-04-06T14:42:39;20.70;77.10
20795;DHT22;28087;-33.874;151.240;2023-04-06T14:45:13;20.70;77.10
20795;DHT22;28087;-33.874;151.240;2023-04-06T14:47:48;20.70;77.10
20795;DHT22;28087;-33.874;151.240;2023-04-06T14:50:22;20.60;77.30
20795;DHT22;28087;-33.874;151.240;2023-04-06T14:52:56;20.60;77.20
20795;DHT22;28087;-33.874;151.240;2023-04-06T14:55:31;20.60;77.30
20795;DHT22;28087;-33.874;151.240;2023-04-06T14:58:07;20.70;77.40
20795;DHT22;28087;-33.874;151.240;2023-04-06T15:00:41;20.60;77.20
20795;DHT22;28087;-33.874;151.240;2023-04-06T15:03:18;20.60;77.70
20795;DHT22;28087;-33.874;151.240;2023-04-06T15:05:54;20.50;77.90
20795;DHT22;28087;-33.874;151.240;2023-04-06T15:08:31;20.50;77.80
20795;DHT22;28087;-33.874;151.240;2023-04-06T15:11:06;20.50;77.90
20795;DHT22;28087;-33.874;151.240;2023-04-06T15:13:42;20.60;78.00
20795;DHT22;28087;-33.874;151.240;2023-04-06T15:16:17;20.60;78.20
20795;DHT22;28087;-33.874;151.240;2023-04-06T15:18:51;20.60;78.00
20795;DHT22;28087;-33.874;151.240;2023-04-06T15:21:25;20.50;78.10
20795;DHT22;28087;-33.874;151.240;2023-04-06T15:24:00;20.50;78.10
20795;DHT22;28087;-33.874;151.240;2023-04-06T15:26:37;20.60;78.00
20795;DHT22;28087;-33.874;151.240;2023-04-06T15:29:13;20.50;78.00
20795;DHT22;28087;-33.874;151.240;2023-04-06T15:31:47;20.50;78.10
20795;DHT22;28087;-33.874;151.240;2023-04-06T15:34:22;20.40;78.00
20795;DHT22;28087;-33.874;151.240;2023-04-06T15:36:56;20.40;78.10
20795;DHT22;28087;-33.874;151.240;2023-04-06T15:39:33;20.40;78.20
20795;DHT22;28087;-33.874;151.240;2023-04-06T15:42:08;20.40;78.30
20795;DHT22;28087;-33.874;151.240;2023-04-06T15:44:44;20.40;78.30